Time;durP1;ratioP1;P1;durP2;ratioP2;P2;SDS_P1;SDS_P2;PMS_P1;PMS_P2;Temp;Humidity;BMP_temperature;BMP_pressure;BME280_temperature;BME280_humidity;BME280_pressure;Samples;Min_cycle;Max_cycle;Signal;HPM_P1;HPM_P2
2022/10/16 00:01:50;;;;;;;3.40;1.40;;;13.50;99.90;;;;;;5053759;28;20202;-90
2022/10/16 00:04:17;;;;;;;1.60;1.50;;;13.40;99.90;;;;;;5053112;28;20226;-90
2022/10/16 00:06:44;;;;;;;2.53;1.73;;;13.50;99.90;;;;;;5054016;28;20218;-90
2022/10/16 00:09:11;;;;;;;2.27;1.60;;;13.50;99.90;;;;;;5053915;28;20203;-91
2022/10/16 00:11:40;;;;;;;1.63;1.53;;;13.40;99.90;;;;;;5053660;28;20223;-90
2022/10/16 00:14:11;;;;;;;3.03;1.60;;;13.40;99.90;;;;;;5053916;28;20233;-91
2022/10/16 00:16:40;;;;;;;3.13;1.80;;;13.50;99.90;;;;;;5053755;28;20210;-90
2022/10/16 00:19:07;;;;;;;2.00;1.80;;;13.50;99.90;;;;;;5053487;28;20206;-90
2022/10/16 00:21:34;;;;;;;2.07;1.87;;;13.40;99.90;;;;;;5053446;28;20213;-90
2022/10/16 00:24:04;;;;;;;2.13;1.50;;;13.40;99.90;;;;;;5050422;28;20241;-90
2022/10/16 00:26:33;;;;;;;1.80;1.50;;;13.50;99.90;;;;;;5047205;28;20233;-90
2022/10/16 00:28:59;;;;;;;2.00;1.20;;;13.20;99.90;;;;;;5051549;28;20210;-89
2022/10/16 00:31:27;;;;;;;1.40;1.30;;;13.30;99.90;;;;;;5052113;28;20222;-90
2022/10/16 00:33:55;;;;;;;1.60;1.50;;;13.30;99.90;;;;;;5052752;28;20699;-90
2022/10/16 00:36:25;;;;;;;2.63;1.30;;;13.20;99.90;;;;;;5050440;28;20211;-91
2022/10/16 00:38:54;;;;;;;2.73;1.33;;;13.30;99.90;;;;;;5053286;28;20195;-90
2022/10/16 00:41:22;;;;;;;3.97;1.47;;;13.20;99.90;;;;;;5045568;28;20688;-90
2022/10/16 00:43:51;;;;;;;1.30;1.20;;;13.20;99.90;;;;;;5052374;28;20658;-91
2022/10/16 00:46:21;;;;;;;2.17;1.47;;;13.20;99.90;;;;;;5037276;28;20269;-90
2022/10/16 00:48:52;;;;;;;1.50;1.40;;;13.20;99.90;;;;;;5052387;28;20203;-90
2022/10/16 00:51:26;;;;;;;2.00;1.80;;;13.20;99.90;;;;;;5040492;28;20718;-90
2022/10/16 00:53:53;;;;;;;1.87;1.43;;;13.20;99.90;;;;;;5047736;28;20253;-91
2022/10/16 00:56:20;;;;;;;2.57;1.60;;;13.20;99.90;;;;;;5052551;28;20197;-90
2022/10/16 00:58:47;;;;;;;2.50;1.60;;;13.20;99.90;;;;;;5050372;28;20442;-89
2022/10/16 01:01:14;;;;;;;2.00;1.90;;;13.20;99.90;;;;;;5052155;28;20674;-90
2022/10/16 01:03:41;;;;;;;1.90;1.57;;;13.20;99.90;;;;;;5051997;28;20222;-90
2022/10/16 01:06:24;;;;;;;1.80;1.70;;;13.20;99.90;;;;;;5049936;28;20230;-90
2022/10/16 01:09:07;;;;;;;1.70;1.60;;;13.20;99.90;;;;;;5042501;28;20219;-90
2022/10/16 01:11:39;;;;;;;2.50;1.70;;;13.20;99.90;;;;;;5042429;28;20222;-90
2022/10/16 01:14:14;;;;;;;2.77;2.57;;;13.30;99.90;;;;;;5051145;28;20225;-90
2022/10/16 01:16:45;;;;;;;4.50;2.60;;;13.20;99.90;;;;;;5051630;28;20206;-90
2022/10/16 01:19:18;;;;;;;2.43;2.10;;;13.20;99.90;;;;;;5051510;28;20199;-90
2022/10/16 01:21:49;;;;;;;2.70;2.03;;;13.00;99.90;;;;;;5051780;28;20207;-91
2022/10/16 01:24:28;;;;;;;2.50;2.30;;;13.20;99.90;;;;;;5051656;28;20782;-90
2022/10/16 01:27:15;;;;;;;2.50;2.13;;;13.20;99.90;;;;;;5051000;28;20203;-90
2022/10/16 01:29:53;;;;;;;2.43;2.13;;;13.10;99.90;;;;;;5050345;28;20667;-90
2022/10/16 01:32:28;;;;;;;2.20;2.00;;;13.10;99.90;;;;;;5051703;28;20210;-90
2022/10/16 01:35:02;;;;;;;2.27;2.17;;;13.10;99.90;;;;;;5046966;28;20401;-90
2022/10/16 01:37:35;;;;;;;3.00;2.20;;;13.20;99.90;;;;;;5046231;28;20204;-90
2022/10/16 01:40:06;;;;;;;4.07;2.40;;;13.10;99.90;;;;;;5050632;28;20206;-90
2022/10/16 01:42:38;;;;;;;2.73;2.30;;;13.20;99.90;;;;;;5051166;28;20206;-90
2022/10/16 01:45:07;;;;;;;3.23;2.23;;;13.10;99.90;;;;;;5046309;28;20606;-90
2022/10/16 01:47:36;;;;;;;2.90;2.30;;;13.00;99.90;;;;;;5048632;28;20211;-90
2022/10/16 01:50:05;;;;;;;2.30;2.10;;;13.00;99.90;;;;;;5052015;28;20199;-90
2022/10/16 01:52:36;;;;;;;3.33;2.23;;;12.90;99.90;;;;;;5043937;28;20227;-90
2022/10/16 01:55:07;;;;;;;3.33;2.10;;;12.90;99.90;;;;;;5050481;28;20296;-90
2022/10/16 01:57:39;;;;;;;2.47;2.17;;;12.80;99.90;;;;;;5051091;28;20209;-89
2022/10/16 02:00:10;;;;;;;2.63;2.33;;;12.80;99.90;;;;;;5051468;28;20210;-90
2022/10/16 02:02:39;;;;;;;3.23;2.37;;;12.80;99.90;;;;;;5051576;28;20195;-89
2022/10/16 02:05:16;;;;;;;2.40;2.07;;;12.90;99.90;;;;;;5040927;28;20231;-90
2022/10/16 02:07:43;;;;;;;2.97;2.20;;;12.90;99.90;;;;;;5037958;28;20207;-90
2022/10/16 02:10:11;;;;;;;2.57;2.37;;;12.90;99.90;;;;;;5051552;28;20281;-90
2022/10/16 02:12:44;;;;;;;3.50;2.37;;;12.90;99.90;;;;;;5049647;28;20226;-90
2022/10/16 02:15:11;;;;;;;3.03;2.50;;;12.90;99.90;;;;;;5051402;28;20714;-89
2022/10/16 02:17:37;;;;;;;2.60;2.20;;;12.80;99.90;;;;;;5049692;28;20206;-90
2022/10/16 02:20:06;;;;;;;3.90;2.10;;;12.90;99.90;;;;;;5042879;28;20584;-89
2022/10/16 02:22:37;;;;;;;4.63;2.73;;;12.90;99.90;;;;;;5050164;28;20199;-90
2022/10/16 02:25:08;;;;;;;3.80;2.83;;;12.90;99.90;;;;;;5050005;28;20234;-90
2022/10/16 02:27:45;;;;;;;4.87;2.33;;;13.00;99.90;;;;;;5044523;28;20201;-90
2022/10/16 02:30:18;;;;;;;3.00;2.10;;;13.10;99.90;;;;;;5052458;28;20207;-90
2022/10/16 02:32:48;;;;;;;2.20;2.00;;;13.00;99.90;;;;;;5043785;28;20226;-90
2022/10/16 02:35:17;;;;;;;3.17;2.10;;;12.80;99.90;;;;;;5055302;28;20211;-90
2022/10/16 02:37:46;;;;;;;2.57;2.20;;;12.80;99.90;;;;;;5050401;28;20520;-90
2022/10/16 02:40:13;;;;;;;3.53;2.43;;;12.80;99.90;;;;;;5053016;28;20206;-90
2022/10/16 02:42:42;;;;;;;4.97;2.30;;;12.90;99.90;;;;;;5054942;28;20649;-90
2022/10/16 02:45:12;;;;;;;5.47;2.10;;;12.80;99.90;;;;;;5049390;28;20309;-90
2022/10/16 02:47:38;;;;;;;2.33;2.10;;;12.80;99.90;;;;;;5054278;28;20207;-89
2022/10/16 02:50:12;;;;;;;3.30;2.03;;;12.80;99.90;;;;;;5050038;28;20218;-91
2022/10/16 02:52:44;;;;;;;2.50;2.30;;;12.80;99.90;;;;;;5053291;28;20217;-90
2022/10/16 02:55:20;;;;;;;5.47;2.40;;;12.80;99.90;;;;;;5053455;28;20773;-90
2022/10/16 03:00:39;;;;;;;3.40;2.40;;;12.80;99.90;;;;;;5054297;28;20206;-90
2022/10/16 03:03:11;;;;;;;3.47;2.30;;;12.80;99.90;;;;;;5044031;28;20194;-90
2022/10/16 03:05:38;;;;;;;4.33;2.30;;;12.60;99.90;;;;;;5053134;28;20210;-90
2022/10/16 03:08:08;;;;;;;6.93;2.70;;;12.70;99.90;;;;;;5055146;28;20199;-89
2022/10/16 03:10:36;;;;;;;6.57;2.50;;;12.70;99.90;;;;;;5054023;28;20292;-90
2022/10/16 03:15:48;;;;;;;5.83;2.60;;;12.80;99.90;;;;;;5054491;28;20266;-90
2022/10/16 03:18:17;;;;;;;4.47;2.47;;;12.80;99.90;;;;;;5042438;28;20215;-89
2022/10/16 03:20:49;;;;;;;5.43;2.30;;;12.90;99.90;;;;;;5054454;28;20192;-89
2022/10/16 03:23:21;;;;;;;3.70;2.50;;;13.00;99.90;;;;;;5047588;28;20253;-89
2022/10/16 03:25:59;;;;;;;9.00;2.87;;;12.90;99.90;;;;;;5051131;28;20200;-90
2022/10/16 03:28:30;;;;;;;5.70;2.60;;;13.00;99.90;;;;;;5035858;28;20215;-89
2022/10/16 03:30:59;;;;;;;5.67;2.60;;;13.00;99.90;;;;;;5047207;28;20291;-89
2022/10/16 03:33:34;;;;;;;3.10;2.70;;;13.30;99.90;;;;;;5053860;28;20277;-90
2022/10/16 03:36:04;;;;;;;6.23;2.90;;;13.30;99.90;;;;;;5047389;28;20210;-90
2022/10/16 03:38:40;;;;;;;2.50;2.03;;;13.20;99.90;;;;;;5051245;28;20199;-89
2022/10/16 03:41:12;;;;;;;2.40;2.20;;;13.00;99.90;;;;;;5053490;28;20198;-89
2022/10/16 03:43:45;;;;;;;4.77;2.40;;;13.30;99.90;;;;;;5044298;28;20744;-89
2022/10/16 03:46:21;;;;;;;6.90;2.43;;;13.20;99.90;;;;;;5036461;28;20696;-89
2022/10/16 03:48:57;;;;;;;5.83;2.00;;;13.20;99.90;;;;;;5053293;28;20260;-89
2022/10/16 03:51:27;;;;;;;4.20;2.53;;;13.20;99.90;;;;;;5049885;28;20208;-89
2022/10/16 03:53:59;;;;;;;3.73;2.37;;;13.30;99.90;;;;;;5051677;28;20219;-90
2022/10/16 03:56:33;;;;;;;7.80;2.80;;;13.50;99.90;;;;;;5052653;28;20646;-89
2022/10/16 03:59:12;;;;;;;3.13;2.30;;;13.50;99.90;;;;;;5052757;28;20687;-89
2022/10/16 04:01:39;;;;;;;3.27;2.03;;;13.40;99.90;;;;;;5054087;28;20233;-88
2022/10/16 04:04:09;;;;;;;2.80;2.50;;;13.10;99.90;;;;;;5052131;28;20229;-89
2022/10/16 04:06:45;;;;;;;4.07;2.40;;;13.10;99.90;;;;;;5052047;28;20215;-88
2022/10/16 04:09:24;;;;;;;4.70;2.30;;;13.10;99.90;;;;;;5053599;28;20260;-89
2022/10/16 04:12:04;;;;;;;6.93;2.33;;;13.20;99.90;;;;;;5053983;28;20281;-89
2022/10/16 04:14:34;;;;;;;3.57;2.53;;;13.10;99.90;;;;;;5047736;28;20230;-88
2022/10/16 04:17:09;;;;;;;4.10;1.90;;;13.40;99.90;;;;;;5049735;28;20198;-89
2022/10/16 04:19:57;;;;;;;;;;;;;;;;;;;;;
2022/10/16 04:22:24;;;;;;;3.40;2.20;;;13.10;99.90;;;;;;5052183;28;20195;-87
2022/10/16 04:24:51;;;;;;;4.27;3.27;;;13.00;99.90;;;;;;5048866;28;20219;-87
2022/10/16 04:27:18;;;;;;;5.00;3.57;;;13.10;99.90;;;;;;5037792;28;20200;-88
2022/10/16 04:29:46;;;;;;;5.63;3.67;;;13.00;99.90;;;;;;5051308;28;20676;-88
2022/10/16 04:32:13;;;;;;;3.23;2.20;;;12.90;99.90;;;;;;5038856;28;20591;-88
2022/10/16 04:34:40;;;;;;;3.53;2.07;;;12.80;99.90;;;;;;5052771;28;20306;-87
2022/10/16 04:37:07;;;;;;;3.83;2.60;;;12.80;99.90;;;;;;5041920;28;20199;-88
2022/10/16 04:39:34;;;;;;;3.27;2.60;;;12.90;99.90;;;;;;5044671;28;20217;-88
2022/10/16 04:42:01;;;;;;;3.33;2.70;;;12.90;99.90;;;;;;5046521;28;20212;-88
2022/10/16 04:44:28;;;;;;;2.60;2.40;;;12.90;99.90;;;;;;5047183;28;20215;-88
2022/10/16 04:46:57;;;;;;;4.80;2.50;;;12.80;99.90;;;;;;5042189;28;20199;-88
2022/10/16 04:49:35;;;;;;;7.60;2.33;;;12.80;99.90;;;;;;5045801;28;20282;-88
2022/10/16 04:52:02;;;;;;;3.03;2.30;;;12.80;99.90;;;;;;5046634;28;20199;-88
2022/10/16 04:54:44;;;;;;;3.10;2.80;;;13.00;99.90;;;;;;5041985;28;20728;-86
2022/10/16 04:57:14;;;;;;;5.67;3.40;;;12.80;99.90;;;;;;5047011;28;20901;-88
2022/10/16 04:59:53;;;;;;;3.47;2.93;;;12.80;99.90;;;;;;5044156;28;20680;-88
2022/10/16 05:02:27;;;;;;;5.00;3.77;;;12.80;99.90;;;;;;5041660;28;20230;-87
2022/10/16 05:07:55;;;;;;;3.07;2.77;;;12.90;99.90;;;;;;5040917;28;20207;-87
2022/10/16 05:10:31;;;;;;;4.37;2.60;;;12.90;99.90;;;;;;5041152;28;20269;-88
2022/10/16 05:13:03;;;;;;;3.83;2.67;;;12.90;99.90;;;;;;5049056;28;20218;-88
2022/10/16 05:15:34;;;;;;;3.47;2.77;;;12.90;99.90;;;;;;5042744;28;20632;-88
2022/10/16 05:18:08;;;;;;;4.10;3.17;;;12.90;99.90;;;;;;5047441;28;20284;-88
2022/10/16 05:20:37;;;;;;;4.23;2.60;;;13.00;99.90;;;;;;5042365;28;20208;-88
2022/10/16 05:23:04;;;;;;;3.10;2.80;;;12.80;99.90;;;;;;5042700;28;20202;-89
2022/10/16 05:25:40;;;;;;;2.87;2.67;;;12.80;99.90;;;;;;5042057;28;20377;-88
2022/10/16 05:28:15;;;;;;;3.23;2.93;;;12.80;99.90;;;;;;5045482;28;20230;-88
2022/10/16 05:30:44;;;;;;;2.90;2.70;;;12.70;99.90;;;;;;5042831;28;20621;-89
2022/10/16 05:33:18;;;;;;;3.97;3.20;;;12.70;99.90;;;;;;5042967;28;20258;-89
2022/10/16 05:35:51;;;;;;;3.57;2.83;;;12.60;99.90;;;;;;5042825;28;20209;-88
2022/10/16 05:38:21;;;;;;;3.03;2.50;;;12.70;99.90;;;;;;5050176;28;20692;-88
2022/10/16 05:40:57;;;;;;;5.00;2.70;;;12.60;99.90;;;;;;5045725;28;20230;-88
2022/10/16 05:43:25;;;;;;;4.80;3.13;;;12.60;99.90;;;;;;5043312;28;20306;-89
2022/10/16 05:45:55;;;;;;;2.80;2.43;;;12.60;99.90;;;;;;5051007;28;20268;-88
2022/10/16 05:48:30;;;;;;;3.80;2.90;;;12.50;99.90;;;;;;5038966;28;20214;-89
2022/10/16 05:50:59;;;;;;;2.90;2.70;;;12.40;99.90;;;;;;5038548;28;20620;-89
2022/10/16 05:53:31;;;;;;;2.83;2.40;;;12.40;99.90;;;;;;5043555;28;20230;-87
2022/10/16 05:55:59;;;;;;;3.23;2.67;;;12.40;99.90;;;;;;5042716;28;20646;-86
2022/10/16 05:58:33;;;;;;;3.47;2.93;;;12.40;99.90;;;;;;5044667;28;20886;-86
2022/10/16 06:01:04;;;;;;;5.93;3.13;;;12.40;99.90;;;;;;5046379;28;20203;-86
2022/10/16 06:03:32;;;;;;;9.67;5.93;;;12.40;99.90;;;;;;5050347;28;20221;-86
2022/10/16 06:05:59;;;;;;;7.43;3.70;;;12.50;99.90;;;;;;5050944;28;20215;-85
2022/10/16 06:08:26;;;;;;;3.30;3.00;;;12.50;99.90;;;;;;5051699;28;20206;-86
2022/10/16 06:11:01;;;;;;;5.07;3.00;;;12.60;99.90;;;;;;5051278;28;20260;-86
2022/10/16 06:13:28;;;;;;;5.33;2.80;;;12.60;99.90;;;;;;5052330;28;20228;-86
2022/10/16 06:15:58;;;;;;;3.13;2.80;;;12.50;99.90;;;;;;5051696;28;20569;-86
2022/10/16 06:18:25;;;;;;;3.10;2.90;;;12.50;99.90;;;;;;5051941;28;20687;-85
2022/10/16 06:20:53;;;;;;;3.20;2.90;;;12.60;99.90;;;;;;5051431;28;20582;-85
2022/10/16 06:23:20;;;;;;;3.00;2.70;;;12.70;99.90;;;;;;5051328;28;20222;-85
2022/10/16 06:25:46;;;;;;;3.43;2.90;;;12.80;99.90;;;;;;5051335;28;20657;-86
2022/10/16 06:28:15;;;;;;;4.37;2.67;;;13.00;99.90;;;;;;5051808;28;20207;-86
2022/10/16 06:30:43;;;;;;;2.53;2.30;;;13.10;99.90;;;;;;5051431;28;20219;-86
2022/10/16 06:33:10;;;;;;;2.60;2.40;;;13.20;99.90;;;;;;5052031;28;20225;-87
2022/10/16 06:35:37;;;;;;;4.93;2.87;;;13.30;99.90;;;;;;5051568;28;20680;-87
2022/10/16 06:38:05;;;;;;;2.90;2.60;;;13.20;99.90;;;;;;5051717;28;20233;-87
2022/10/16 06:40:32;;;;;;;5.43;2.60;;;13.20;99.90;;;;;;5051503;28;20568;-87
2022/10/16 06:42:58;;;;;;;2.70;2.50;;;13.10;99.90;;;;;;5069057;28;20202;-87
2022/10/16 06:45:25;;;;;;;3.40;2.40;;;13.00;99.90;;;;;;5054608;28;20491;-87
2022/10/16 06:47:52;;;;;;;4.40;2.10;;;13.10;99.90;;;;;;5051730;28;20211;-87
2022/10/16 06:50:19;;;;;;;4.90;2.60;;;13.20;99.90;;;;;;5051203;28;20218;-87
2022/10/16 06:52:45;;;;;;;14.20;9.30;;;13.70;99.90;;;;;;5051566;28;20588;-90
2022/10/16 06:55:14;;;;;;;2.70;2.50;;;13.30;99.90;;;;;;5048438;28;20619;-88
2022/10/16 06:57:46;;;;;;;5.70;2.70;;;13.40;99.90;;;;;;5041848;28;20207;-87
2022/10/16 07:00:15;;;;;;;3.00;2.27;;;13.60;99.90;;;;;;5043517;28;20291;-88
2022/10/16 07:02:42;;;;;;;2.23;2.10;;;13.60;99.90;;;;;;5049870;28;20202;-89
2022/10/16 07:05:09;;;;;;;3.50;2.43;;;13.80;99.90;;;;;;5040734;28;20226;-87
2022/10/16 07:07:36;;;;;;;2.70;2.30;;;14.00;99.90;;;;;;5042914;28;20567;-88
2022/10/16 07:10:06;;;;;;;3.30;2.30;;;14.20;99.90;;;;;;5041777;28;20657;-88
2022/10/16 07:12:37;;;;;;;2.50;2.27;;;14.30;99.90;;;;;;5046611;28;20199;-88
2022/10/16 07:15:04;;;;;;;2.43;2.10;;;14.40;99.90;;;;;;5043459;28;20220;-88
2022/10/16 07:17:31;;;;;;;3.10;1.83;;;14.50;99.90;;;;;;5049873;28;20206;-88
2022/10/16 07:20:00;;;;;;;3.03;2.03;;;14.90;99.90;;;;;;5041428;28;20548;-88
2022/10/16 07:22:29;;;;;;;2.23;1.70;;;15.00;99.90;;;;;;5051347;28;20571;-88
2022/10/16 07:24:56;;;;;;;2.40;1.77;;;15.20;99.90;;;;;;5046922;28;20587;-88
2022/10/16 07:27:29;;;;;;;1.70;1.60;;;15.20;99.90;;;;;;5045679;28;20585;-87
2022/10/16 07:30:02;;;;;;;1.90;1.80;;;15.30;99.90;;;;;;5041296;28;20206;-87
2022/10/16 07:32:34;;;;;;;1.83;1.38;;;15.40;99.90;;;;;;5048647;28;20678;-87
2022/10/16 07:35:02;;;;;;;2.07;1.57;;;15.50;99.90;;;;;;5049137;28;20223;-88
2022/10/16 07:37:31;;;;;;;1.70;1.60;;;15.50;99.90;;;;;;5042827;28;20211;-87
2022/10/16 07:40:01;;;;;;;1.90;1.53;;;15.60;99.90;;;;;;5048814;28;20289;-87
2022/10/16 07:42:31;;;;;;;2.90;1.63;;;15.70;99.90;;;;;;5046794;28;20227;-88
2022/10/16 07:45:00;;;;;;;1.67;1.57;;;15.80;99.90;;;;;;5049570;28;20230;-87
2022/10/16 07:47:26;;;;;;;2.73;1.50;;;15.80;99.90;;;;;;5045075;28;20209;-88
2022/10/16 07:49:53;;;;;;;1.45;1.35;;;15.90;99.90;;;;;;5050952;28;20209;-87
2022/10/16 07:52:20;;;;;;;1.90;1.60;;;16.20;99.90;;;;;;5045107;28;20291;-88
2022/10/16 07:54:47;;;;;;;1.30;1.20;;;16.20;99.90;;;;;;5050119;28;20807;-88
2022/10/16 07:57:19;;;;;;;2.35;1.35;;;16.30;99.90;;;;;;5041453;28;20207;-87
2022/10/16 07:59:46;;;;;;;2.60;2.38;;;16.30;99.90;;;;;;5045966;28;20237;-88
2022/10/16 08:02:14;;;;;;;2.20;1.52;;;16.30;99.90;;;;;;5038592;28;20261;-87
2022/10/16 08:04:52;;;;;;;1.98;1.20;;;16.30;99.90;;;;;;5049869;28;20684;-88
2022/10/16 08:07:19;;;;;;;1.47;1.37;;;16.20;99.90;;;;;;5044618;28;20575;-90
2022/10/16 08:09:51;;;;;;;2.45;1.58;;;16.20;99.90;;;;;;5051988;28;20203;-88
2022/10/16 08:12:21;;;;;;;1.90;1.38;;;16.20;99.90;;;;;;5047131;28;20651;-88
2022/10/16 08:14:48;;;;;;;1.70;1.20;;;16.30;99.90;;;;;;5042059;28;20226;-88
2022/10/16 08:17:19;;;;;;;1.30;1.30;;;16.30;99.90;;;;;;5049430;28;20587;-86
2022/10/16 08:19:49;;;;;;;2.13;1.25;;;16.30;99.90;;;;;;5045325;28;20261;-87
2022/10/16 08:22:23;;;;;;;1.67;1.58;;;16.40;99.90;;;;;;5047926;28;20209;-87
2022/10/16 08:24:50;;;;;;;1.40;1.30;;;16.40;99.90;;;;;;5043447;28;20222;-87
2022/10/16 08:27:19;;;;;;;2.13;1.55;;;16.50;99.90;;;;;;5045836;28;20214;-88
2022/10/16 08:29:49;;;;;;;2.30;1.50;;;16.60;99.90;;;;;;5044013;28;20213;-87
2022/10/16 08:32:20;;;;;;;2.33;1.23;;;16.60;99.90;;;;;;5049087;28;20219;-87
2022/10/16 08:34:47;;;;;;;1.85;1.50;;;16.50;99.90;;;;;;5044517;28;20254;-87
2022/10/16 08:37:14;;;;;;;1.25;1.15;;;16.50;99.90;;;;;;5043435;28;20200;-88
2022/10/16 08:39:42;;;;;;;2.25;1.10;;;16.60;99.90;;;;;;5041432;28;20203;-87
2022/10/16 08:42:23;;;;;;;1.20;1.10;;;16.70;99.90;;;;;;5048409;28;20211;-87
2022/10/16 08:45:08;;;;;;;1.63;1.33;;;16.80;99.90;;;;;;5043306;28;20246;-87
2022/10/16 08:47:48;;;;;;;2.58;1.23;;;16.80;99.90;;;;;;5044545;28;20665;-87
2022/10/16 08:50:21;;;;;;;2.00;1.17;;;17.00;99.90;;;;;;5041527;28;20199;-87
2022/10/16 08:52:58;;;;;;;1.52;1.42;;;17.10;99.90;;;;;;5047347;28;20233;-87
2022/10/16 08:55:38;;;;;;;3.28;1.27;;;17.00;99.90;;;;;;5041340;28;20224;-88
2022/10/16 08:58:13;;;;;;;2.65;1.90;;;17.20;99.90;;;;;;5045950;28;20212;-86
2022/10/16 09:00:46;;;;;;;1.77;1.40;;;17.00;99.90;;;;;;5045631;28;20206;-87
2022/10/16 09:03:24;;;;;;;1.60;1.42;;;16.90;99.90;;;;;;5047930;28;20224;-86
2022/10/16 09:06:03;;;;;;;3.20;1.98;;;16.80;99.90;;;;;;5041629;28;20211;-86
2022/10/16 09:08:37;;;;;;;3.63;2.40;;;16.80;99.90;;;;;;5048523;28;20207;-87
2022/10/16 09:11:13;;;;;;;5.95;3.33;;;16.70;99.90;;;;;;5041872;28;20217;-86
2022/10/16 09:13:50;;;;;;;2.80;2.10;;;16.70;99.90;;;;;;5040966;28;20222;-86
2022/10/16 09:16:24;;;;;;;2.80;1.70;;;16.80;99.90;;;;;;5044301;28;20459;-88
2022/10/16 09:18:59;;;;;;;3.17;1.48;;;16.90;99.90;;;;;;5041000;28;20215;-88
2022/10/16 09:21:30;;;;;;;1.98;1.77;;;16.90;99.90;;;;;;5043832;28;20203;-86
2022/10/16 09:24:03;;;;;;;2.22;2.00;;;17.00;99.90;;;;;;5035672;28;20598;-86
2022/10/16 09:26:33;;;;;;;3.05;2.20;;;17.20;99.90;;;;;;5045678;28;20200;-88
2022/10/16 09:29:00;;;;;;;3.25;2.00;;;17.40;52.50;;;;;;5041824;28;20264;-86
2022/10/16 09:31:27;;;;;;;1.60;1.50;;;17.40;9.20;;;;;;5044359;28;20210;-88
2022/10/16 09:34:04;;;;;;;2.78;1.60;;;17.40;1.00;;;;;;5038228;28;20215;-86
2022/10/16 09:36:41;;;;;;;4.45;1.55;;;17.50;1.00;;;;;;5045019;28;20625;-87
2022/10/16 09:39:12;;;;;;;2.30;1.73;;;17.60;1.00;;;;;;5042168;28;20294;-86
2022/10/16 09:41:42;;;;;;;2.90;1.35;;;17.70;99.90;;;;;;5037014;28;20306;-87
2022/10/16 09:44:20;;;;;;;1.35;1.25;;;18.00;1.00;;;;;;5036275;28;20238;-86
2022/10/16 09:47:01;;;;;;;1.75;1.00;;;18.20;1.00;;;;;;5038712;28;20202;-86
2022/10/16 09:49:29;;;;;;;2.83;1.38;;;18.40;99.90;;;;;;5041615;28;20573;-86
2022/10/16 09:52:06;;;;;;;2.10;1.70;;;18.60;99.90;;;;;;5044482;28;20230;-86
2022/10/16 09:54:33;;;;;;;1.23;1.13;;;18.80;1.00;;;;;;5044708;28;20227;-88
2022/10/16 09:57:07;;;;;;;2.35;1.60;;;18.80;1.00;;;;;;5044867;28;20332;-86
2022/10/16 09:59:35;;;;;;;3.53;1.83;;;19.20;99.90;;;;;;5039468;28;20214;-86
2022/10/16 10:02:14;;;;;;;5.05;1.50;;;19.20;1.00;;;;;;5043799;28;20204;-86
2022/10/16 10:04:54;;;;;;;3.58;1.60;;;19.50;1.00;;;;;;5046123;28;20247;-87
2022/10/16 10:07:26;;;;;;;1.30;1.20;;;19.60;99.90;;;;;;5043677;28;20223;-86
2022/10/16 10:09:57;;;;;;;3.47;1.50;;;19.80;99.90;;;;;;5037493;28;20566;-86
2022/10/16 10:12:27;;;;;;;4.55;1.55;;;19.90;1.00;;;;;;5044939;28;20826;-86
2022/10/16 10:14:56;;;;;;;3.22;2.00;;;20.20;1.00;;;;;;5042187;28;20578;-84
2022/10/16 10:17:26;;;;;;;2.20;1.65;;;20.00;1.00;;;;;;5045518;28;20261;-87
2022/10/16 10:19:57;;;;;;;0.80;0.77;;;20.10;1.00;;;;;;5040302;28;20207;-85
2022/10/16 10:22:30;;;;;;;0.85;0.68;;;20.00;99.90;;;;;;5043716;28;20724;-88
2022/10/16 10:25:27;;;;;;;2.67;0.80;;;19.90;99.90;;;;;;5046444;28;20310;-87
2022/10/16 10:28:18;;;;;;;1.48;0.70;;;20.00;1.00;;;;;;5042484;28;20204;-88
2022/10/16 10:30:52;;;;;;;0.80;0.70;;;19.70;1.00;;;;;;5047006;28;20230;-88
2022/10/16 10:33:25;;;;;;;1.27;1.02;;;20.00;24.40;;;;;;5038505;28;20692;-88
2022/10/16 10:36:06;;;;;;;1.35;1.00;;;19.90;1.00;;;;;;5049691;28;20222;-88
2022/10/16 10:38:46;;;;;;;2.10;0.80;;;20.00;1.00;;;;;;5043591;28;20200;-88
2022/10/16 10:41:43;;;;;;;1.77;0.70;;;20.40;1.00;;;;;;5047487;28;20298;-88
2022/10/16 10:44:20;;;;;;;3.47;0.70;;;20.70;1.00;;;;;;5045407;28;20218;-87
2022/10/16 10:46:52;;;;;;;2.63;0.70;;;19.90;1.00;;;;;;5047111;28;20285;-87
2022/10/16 10:49:44;;;;;;;1.10;0.50;;;20.10;1.00;;;;;;5051293;28;20253;-87
2022/10/16 10:52:34;;;;;;;0.63;0.50;;;20.20;1.00;;;;;;5051107;28;20217;-87
2022/10/16 10:55:13;;;;;;;1.35;0.60;;;20.50;1.00;;;;;;5047982;28;20310;-88
2022/10/16 10:57:52;;;;;;;1.02;0.60;;;20.60;1.00;;;;;;5048664;28;20206;-88
2022/10/16 11:00:29;;;;;;;1.70;0.80;;;20.80;1.00;;;;;;5050813;28;20357;-87
2022/10/16 11:03:07;;;;;;;1.83;0.60;;;20.70;99.90;;;;;;5051023;28;20199;-87
2022/10/16 11:05:48;;;;;;;2.72;0.70;;;20.70;99.90;;;;;;5048147;28;20207;-87
2022/10/16 11:08:21;;;;;;;0.50;0.50;;;21.00;99.90;;;;;;5050771;28;20554;-87
2022/10/16 11:10:54;;;;;;;2.33;0.50;;;21.00;99.90;;;;;;5050982;28;20203;-88
2022/10/16 11:13:30;;;;;;;2.25;0.75;;;20.90;99.90;;;;;;5049438;28;20242;-88
2022/10/16 11:16:01;;;;;;;2.53;0.73;;;21.10;99.90;;;;;;5050822;28;20237;-88
2022/10/16 11:18:42;;;;;;;1.55;0.70;;;21.40;99.90;;;;;;5050387;28;20226;-87
2022/10/16 11:21:15;;;;;;;3.08;0.70;;;21.10;99.90;;;;;;5051179;28;20288;-88
2022/10/16 11:23:49;;;;;;;0.95;0.85;;;21.20;99.90;;;;;;5050239;28;20231;-88
2022/10/16 11:26:21;;;;;;;1.35;0.70;;;21.50;98.70;;;;;;5050416;28;20686;-88
2022/10/16 11:28:51;;;;;;;3.17;0.82;;;21.70;1.00;;;;;;5046665;28;20234;-88
2022/10/16 11:31:25;;;;;;;2.17;0.88;;;21.30;1.00;;;;;;5048920;28;20213;-88
2022/10/16 11:34:03;;;;;;;1.83;0.50;;;21.10;1.00;;;;;;5052675;28;20265;-88
2022/10/16 11:36:38;;;;;;;4.00;0.63;;;21.10;1.00;;;;;;5046474;28;20598;-88
2022/10/16 11:39:19;;;;;;;2.15;0.90;;;21.30;1.00;;;;;;5047013;28;20202;-87
2022/10/16 11:41:52;;;;;;;3.83;0.60;;;21.50;1.00;;;;;;5046442;28;20207;-87
2022/10/16 11:44:38;;;;;;;3.03;1.15;;;21.10;1.00;;;;;;5045915;28;20300;-88
2022/10/16 11:47:17;;;;;;;1.08;0.73;;;21.40;1.00;;;;;;5045559;28;20698;-88
2022/10/16 11:49:47;;;;;;;2.83;0.65;;;21.50;1.00;;;;;;5049026;28;20699;-87
2022/10/16 11:52:21;;;;;;;0.80;0.57;;;21.40;1.00;;;;;;5048271;28;20287;-88
2022/10/16 11:54:57;;;;;;;2.60;0.60;;;20.80;1.00;;;;;;5042672;28;20245;-88
2022/10/16 11:57:27;;;;;;;0.57;0.57;;;20.80;1.00;;;;;;5044275;28;20215;-87
2022/10/16 12:00:03;;;;;;;0.85;0.50;;;21.00;1.00;;;;;;5042892;28;20234;-88
2022/10/16 12:02:49;;;;;;;0.88;0.40;;;20.60;1.00;;;;;;5047297;28;20225;-88
2022/10/16 12:05:29;;;;;;;1.33;0.60;;;20.80;1.00;;;;;;5048420;28;20226;-88
2022/10/16 12:08:05;;;;;;;1.67;0.70;;;21.50;1.00;;;;;;5041315;28;20210;-87
2022/10/16 12:10:36;;;;;;;0.40;0.40;;;21.10;1.00;;;;;;5042478;28;20211;-87
2022/10/16 12:13:24;;;;;;;0.60;0.50;;;21.20;1.00;;;;;;5051699;28;20677;-88
2022/10/16 12:16:21;;;;;;;0.70;0.30;;;20.90;1.00;;;;;;5050171;28;20720;-88
2022/10/16 12:19:04;;;;;;;3.63;1.20;;;21.00;1.00;;;;;;5039031;28;20199;-88
2022/10/16 12:21:33;;;;;;;1.27;0.50;;;21.30;1.00;;;;;;5047666;28;20243;-89
2022/10/16 12:24:04;;;;;;;2.15;0.50;;;21.10;1.00;;;;;;5044210;28;20313;-87
2022/10/16 12:26:42;;;;;;;0.57;0.57;;;20.90;1.00;;;;;;5047817;28;20376;-88
2022/10/16 12:29:24;;;;;;;0.60;0.38;;;23.40;1.00;;;;;;5040896;28;20215;-88
2022/10/16 12:31:54;;;;;;;0.60;0.60;;;23.20;1.00;;;;;;5042407;28;20214;-88
2022/10/16 12:34:24;;;;;;;0.65;0.40;;;21.80;1.00;;;;;;5043747;28;20227;-88
2022/10/16 12:36:55;;;;;;;3.47;0.47;;;21.60;1.00;;;;;;5043920;28;20223;-87
2022/10/16 12:39:25;;;;;;;0.68;0.43;;;23.50;1.00;;;;;;5047597;28;20290;-87
2022/10/16 12:42:05;;;;;;;2.22;0.43;;;24.00;1.00;;;;;;5041983;28;20338;-87
2022/10/16 12:44:36;;;;;;;2.55;0.40;;;24.60;1.00;;;;;;5048716;28;20245;-88
2022/10/16 12:47:19;;;;;;;1.48;0.47;;;23.50;1.00;;;;;;5041581;28;20211;-88
2022/10/16 12:49:51;;;;;;;0.32;0.32;;;21.50;99.90;;;;;;5050418;28;20665;-88
2022/10/16 12:52:31;;;;;;;1.80;0.63;;;20.90;1.00;;;;;;5049588;28;20702;-88
2022/10/16 12:55:00;;;;;;;2.78;0.50;;;21.50;1.00;;;;;;5038193;28;20219;-88
2022/10/16 12:57:50;;;;;;;1.02;0.50;;;21.50;99.90;;;;;;5040274;28;20200;-87
2022/10/16 13:00:28;;;;;;;4.03;2.60;;;21.50;99.90;;;;;;5040966;28;20214;-87
2022/10/16 13:03:27;;;;;;;1.10;0.90;;;21.70;99.90;;;;;;5041464;28;20601;-88
2022/10/16 13:06:08;;;;;;;1.95;0.45;;;21.80;99.90;;;;;;5020414;28;20756;-88
2022/10/16 13:08:47;;;;;;;0.45;0.22;;;21.10;99.90;;;;;;5046623;28;20207;-87
2022/10/16 13:11:24;;;;;;;1.50;0.52;;;21.30;99.90;;;;;;5045215;28;20195;-88
2022/10/16 13:14:34;;;;;;;0.52;0.45;;;21.50;99.90;;;;;;5043310;28;20219;-87
2022/10/16 13:17:09;;;;;;;0.43;0.40;;;21.60;99.90;;;;;;5043942;28;20699;-88
2022/10/16 13:19:45;;;;;;;2.63;0.60;;;21.20;99.90;;;;;;5039675;28;20199;-88
2022/10/16 13:22:19;;;;;;;0.95;0.57;;;20.90;99.90;;;;;;5044203;28;20685;-88
2022/10/16 13:25:09;;;;;;;0.90;0.55;;;21.00;99.90;;;;;;5050278;28;20767;-87
2022/10/16 13:27:44;;;;;;;0.98;0.50;;;20.80;99.90;;;;;;5041354;28;20680;-88